Time;durP1;ratioP1;P1;durP2;ratioP2;P2;SDS_P1;SDS_P2;PMS_P1;PMS_P2;Temp;Humidity;BMP_temperature;BMP_pressure;BME280_temperature;BME280_humidity;BME280_pressure;Samples;Min_cycle;Max_cycle;Signal;HPM_P1;HPM_P2
2024/02/22 00:02:02;;;;;;;6.03;4.40;;;22.80;40.90;;;;;;5083164;28;20082;-33
2024/02/22 00:04:28;;;;;;;5.30;4.50;;;22.80;41.00;;;;;;5079077;28;20040;-35
2024/02/22 00:06:54;;;;;;;4.90;4.40;;;22.80;41.00;;;;;;5082663;28;20043;-34
2024/02/22 00:09:20;;;;;;;5.15;4.25;;;22.80;40.90;;;;;;5076574;28;20063;-34
2024/02/22 00:11:46;;;;;;;6.50;4.78;;;22.80;40.90;;;;;;5075144;28;20021;-34
2024/02/22 00:14:14;;;;;;;4.50;4.07;;;22.80;40.80;;;;;;5075898;28;20051;-34
2024/02/22 00:16:39;;;;;;;;;;;22.80;40.80;;;;;;5077475;28;20119;-33
2024/02/22 00:19:06;;;;;;;8.75;4.80;;;22.80;40.80;;;;;;5068818;28;20388;-33
2024/02/22 00:21:32;;;;;;;6.95;4.20;;;22.80;40.90;;;;;;5081193;28;20021;-42
2024/02/22 00:23:58;;;;;;;6.50;4.80;;;22.80;41.00;;;;;;5082140;28;20816;-41
2024/02/22 00:26:25;;;;;;;5.10;4.60;;;22.80;41.10;;;;;;5078169;28;20029;-43
2024/02/22 00:28:51;;;;;;;5.03;4.55;;;22.80;41.10;;;;;;5082934;28;20025;-41
2024/02/22 00:31:17;;;;;;;5.75;4.70;;;22.80;41.10;;;;;;5082509;28;20447;-40
2024/02/22 00:33:46;;;;;;;6.03;4.63;;;22.70;41.10;;;;;;5082387;28;20039;-41
2024/02/22 00:36:12;;;;;;;5.47;4.70;;;22.70;41.10;;;;;;5076944;28;20236;-41
2024/02/22 00:38:38;;;;;;;6.37;4.83;;;22.70;41.10;;;;;;5081760;28;21509;-41
2024/02/22 00:41:05;;;;;;;6.57;4.95;;;22.70;41.10;;;;;;5082703;28;20273;-40
2024/02/22 00:43:31;;;;;;;6.88;4.80;;;22.70;41.20;;;;;;5082026;28;20033;-41
2024/02/22 00:45:57;;;;;;;5.32;4.82;;;22.70;41.20;;;;;;5082340;28;20025;-41
2024/02/22 00:48:23;;;;;;;5.13;4.45;;;22.70;41.30;;;;;;5074781;28;20119;-43
2024/02/22 00:50:49;;;;;;;5.57;4.40;;;22.70;41.30;;;;;;5081108;28;20024;-43
2024/02/22 00:53:16;;;;;;;4.90;4.38;;;22.70;41.30;;;;;;5078804;28;20036;-42
2024/02/22 00:55:42;;;;;;;6.57;5.18;;;22.70;41.30;;;;;;5074067;28;20029;-41
2024/02/22 00:58:09;;;;;;;6.53;4.53;;;22.70;41.40;;;;;;5079090;28;20047;-40
2024/02/22 01:00:35;;;;;;;5.27;4.60;;;22.70;41.50;;;;;;5071478;28;20021;-41
2024/02/22 01:03:01;;;;;;;6.43;5.07;;;22.70;41.50;;;;;;5071828;28;20036;-41
2024/02/22 01:05:28;;;;;;;5.93;4.82;;;22.70;41.60;;;;;;5080619;28;20409;-41
2024/02/22 01:07:54;;;;;;;5.53;4.90;;;22.70;41.60;;;;;;5081312;28;20036;-41
2024/02/22 01:10:21;;;;;;;6.68;4.55;;;22.70;41.60;;;;;;5082109;28;20037;-41
2024/02/22 01:12:47;;;;;;;5.65;4.70;;;22.70;41.70;;;;;;5078293;28;20119;-41
2024/02/22 01:15:14;;;;;;;5.07;4.25;;;22.70;41.70;;;;;;5077002;28;20374;-41
2024/02/22 01:17:40;;;;;;;7.40;4.53;;;22.70;41.70;;;;;;5081483;28;20540;-41
2024/02/22 01:20:06;;;;;;;8.18;4.85;;;22.60;41.70;;;;;;5081813;28;20025;-39
2024/02/22 01:22:33;;;;;;;6.15;4.85;;;22.60;41.70;;;;;;5081354;28;20112;-39
2024/02/22 01:24:59;;;;;;;5.40;4.80;;;22.70;41.90;;;;;;5081491;28;20063;-41
2024/02/22 01:27:26;;;;;;;5.68;4.40;;;22.70;41.90;;;;;;5075332;28;20058;-41
2024/02/22 01:29:52;;;;;;;6.25;4.70;;;22.70;41.90;;;;;;5073540;28;20481;-39
2024/02/22 01:32:18;;;;;;;6.57;4.80;;;22.70;41.80;;;;;;5081923;28;20062;-39
2024/02/22 01:34:44;;;;;;;5.60;4.93;;;22.60;41.80;;;;;;5074448;28;20048;-41
2024/02/22 01:37:10;;;;;;;5.88;4.88;;;22.60;41.80;;;;;;5080956;28;20068;-41
2024/02/22 01:39:36;;;;;;;5.13;4.63;;;22.60;41.70;;;;;;5080613;28;20032;-41
2024/02/22 01:42:02;;;;;;;4.60;4.20;;;22.60;41.80;;;;;;5081767;28;20060;-39
2024/02/22 01:44:29;;;;;;;5.05;4.55;;;22.60;41.90;;;;;;5078263;28;20448;-41
2024/02/22 01:46:56;;;;;;;4.50;4.10;;;22.60;41.90;;;;;;5075261;28;20036;-40
2024/02/22 01:49:25;;;;;;;5.03;4.38;;;22.60;41.90;;;;;;5080166;28;20033;-40
2024/02/22 01:51:53;;;;;;;5.13;4.30;;;22.60;41.90;;;;;;5074511;28;20151;-41
2024/02/22 01:54:19;;;;;;;5.97;4.68;;;22.60;41.80;;;;;;5060441;28;20028;-40
2024/02/22 01:56:45;;;;;;;6.03;4.17;;;22.60;41.80;;;;;;5083821;28;20721;-39
2024/02/22 01:59:11;;;;;;;5.00;4.50;;;22.60;41.90;;;;;;5085405;28;20027;-40
2024/02/22 02:01:37;;;;;;;5.07;4.00;;;22.60;42.00;;;;;;5063993;28;20110;-39
2024/02/22 02:04:04;;;;;;;6.25;4.30;;;22.60;42.00;;;;;;5059488;28;20036;-41
2024/02/22 02:06:30;;;;;;;6.97;4.53;;;22.60;42.10;;;;;;5066823;28;20040;-41
2024/02/22 02:08:56;;;;;;;9.98;5.40;;;22.60;42.20;;;;;;5085881;28;20049;-38
2024/02/22 02:11:22;;;;;;;10.25;5.28;;;22.60;42.60;;;;;;5084806;28;20025;-43
2024/02/22 02:13:48;;;;;;;17.67;6.17;;;22.60;43.30;;;;;;5078161;28;20139;-42
2024/02/22 02:16:15;;;;;;;12.90;5.93;;;22.60;44.30;;;;;;5076463;28;20037;-41
2024/02/22 02:18:41;;;;;;;11.63;4.95;;;22.60;44.90;;;;;;5083908;28;20021;-39
2024/02/22 02:21:19;;;;;;;8.05;5.07;;;22.60;44.90;;;;;;5083580;28;20138;-42
2024/02/22 02:24:00;;;;;;;8.00;4.68;;;22.60;44.80;;;;;;5083197;28;20021;-41
2024/02/22 02:26:27;;;;;;;6.50;4.80;;;22.60;45.30;;;;;;5065099;28;20028;-42
2024/02/22 02:28:53;;;;;;;7.15;4.90;;;22.60;44.60;;;;;;5061017;28;20116;-41
2024/02/22 02:31:19;;;;;;;6.53;5.30;;;22.60;44.60;;;;;;5079721;28;20108;-41
2024/02/22 02:33:46;;;;;;;6.32;4.85;;;22.60;44.60;;;;;;5083463;28;20020;-41
2024/02/22 02:36:12;;;;;;;8.82;5.55;;;22.60;44.50;;;;;;5084877;28;20028;-41
2024/02/22 02:38:38;;;;;;;6.65;4.65;;;22.60;44.50;;;;;;5081601;28;20044;-40
2024/02/22 02:41:04;;;;;;;5.10;4.35;;;22.60;44.50;;;;;;5066320;28;20029;-43
2024/02/22 02:43:30;;;;;;;4.65;4.15;;;22.60;44.50;;;;;;5083489;28;20024;-41
2024/02/22 02:45:58;;;;;;;6.28;4.90;;;22.60;44.40;;;;;;5084428;28;20075;-40
2024/02/22 02:48:24;;;;;;;5.15;4.50;;;22.60;44.30;;;;;;5084711;28;20029;-41
2024/02/22 02:50:50;;;;;;;5.93;4.75;;;22.60;44.20;;;;;;5059907;28;20030;-41
2024/02/22 02:53:17;;;;;;;6.43;4.75;;;22.50;44.00;;;;;;5082614;28;20060;-41
2024/02/22 02:55:43;;;;;;;4.72;4.22;;;22.50;44.00;;;;;;5084977;28;20052;-41
2024/02/22 02:58:09;;;;;;;5.20;4.70;;;22.50;44.60;;;;;;5074085;28;20048;-42
2024/02/22 03:00:36;;;;;;;4.82;4.32;;;22.50;44.10;;;;;;5082990;28;20016;-46
2024/02/22 03:03:02;;;;;;;5.03;4.33;;;22.50;44.10;;;;;;5080040;28;20024;-42
2024/02/22 03:05:28;;;;;;;5.07;4.40;;;22.50;44.60;;;;;;5076451;28;20269;-41
2024/02/22 03:07:55;;;;;;;5.60;4.50;;;22.50;43.90;;;;;;5082938;28;20031;-41
2024/02/22 03:10:21;;;;;;;5.88;4.40;;;22.50;43.80;;;;;;5076641;28;20025;-41
2024/02/22 03:12:47;;;;;;;4.75;4.20;;;22.50;43.70;;;;;;5084793;28;20044;-41
2024/02/22 03:15:13;;;;;;;5.55;4.30;;;22.50;43.80;;;;;;5081465;28;20037;-41
2024/02/22 03:17:40;;;;;;;5.50;4.28;;;22.50;43.90;;;;;;5073234;28;20045;-41
2024/02/22 03:20:17;;;;;;;5.20;4.28;;;22.50;43.90;;;;;;5071053;28;20024;-41
2024/02/22 03:22:43;;;;;;;5.95;4.70;;;22.50;43.80;;;;;;5080412;28;20823;-44
2024/02/22 03:25:10;;;;;;;4.95;4.30;;;22.50;43.70;;;;;;5072246;28;20135;-41
2024/02/22 03:27:36;;;;;;;6.32;4.63;;;22.50;43.60;;;;;;5078329;28;20086;-41
2024/02/22 03:30:05;;;;;;;4.53;4.13;;;22.40;43.50;;;;;;5078227;28;20059;-42
2024/02/22 03:32:31;;;;;;;5.45;4.60;;;22.40;43.70;;;;;;5060543;28;20028;-38
2024/02/22 03:34:58;;;;;;;6.10;4.50;;;22.50;43.80;;;;;;5082922;28;20028;-42
2024/02/22 03:37:24;;;;;;;6.35;4.55;;;22.50;43.70;;;;;;5082788;28;20149;-41
2024/02/22 03:39:50;;;;;;;5.25;4.38;;;22.40;43.60;;;;;;5079968;28;20036;-42
2024/02/22 03:42:17;;;;;;;6.65;4.53;;;22.40;43.50;;;;;;5078312;28;20029;-41
2024/02/22 03:44:43;;;;;;;6.18;4.60;;;22.40;43.40;;;;;;5081259;28;20062;-41
2024/02/22 03:47:11;;;;;;;5.45;4.15;;;22.40;43.40;;;;;;5076897;28;20457;-41
2024/02/22 03:49:37;;;;;;;6.15;4.60;;;22.40;43.50;;;;;;5072650;28;20051;-41
2024/02/22 03:52:04;;;;;;;4.63;4.15;;;22.40;43.60;;;;;;5082637;28;20072;-42
2024/02/22 03:54:36;;;;;;;;;;;22.40;43.60;;;;;;5076037;28;20040;-41
2024/02/22 03:57:02;;;;;;;4.50;4.05;;;22.40;43.60;;;;;;5080989;28;20403;-42
2024/02/22 03:59:28;;;;;;;4.43;4.03;;;22.40;43.50;;;;;;5073828;28;20788;-41
2024/02/22 04:01:54;;;;;;;5.55;4.70;;;22.40;43.50;;;;;;5073705;28;20285;-41
2024/02/22 04:04:21;;;;;;;5.65;4.45;;;22.30;43.50;;;;;;5079522;28;20028;-42
2024/02/22 04:06:47;;;;;;;4.97;4.43;;;22.30;43.60;;;;;;5066970;28;20044;-38
2024/02/22 04:09:14;;;;;;;5.53;4.45;;;22.40;43.80;;;;;;5059132;28;20025;-41
2024/02/22 04:11:41;;;;;;;5.45;4.55;;;22.40;43.80;;;;;;5062821;28;20147;-41
2024/02/22 04:14:09;;;;;;;5.28;4.72;;;22.40;43.70;;;;;;5062286;28;20116;-41
2024/02/22 04:16:35;;;;;;;6.13;4.80;;;22.30;43.70;;;;;;5057081;28;20041;-43
2024/02/22 04:19:01;;;;;;;6.57;5.05;;;22.30;43.60;;;;;;5056549;28;20033;-43
2024/02/22 04:21:27;;;;;;;5.40;4.53;;;22.30;43.60;;;;;;5060877;28;20040;-41
2024/02/22 04:23:53;;;;;;;5.20;4.70;;;22.30;43.70;;;;;;5058899;28;20035;-41
2024/02/22 04:26:20;;;;;;;6.68;5.03;;;22.30;43.70;;;;;;5061500;28;20123;-37
2024/02/22 04:28:46;;;;;;;5.78;4.80;;;22.30;43.70;;;;;;5053032;28;20035;-43
2024/02/22 04:31:12;;;;;;;5.93;5.20;;;22.30;43.70;;;;;;5057282;28;20040;-40
2024/02/22 04:33:39;;;;;;;6.60;4.90;;;22.30;43.70;;;;;;5062441;28;20047;-41
2024/02/22 04:36:06;;;;;;;6.50;5.40;;;22.30;43.60;;;;;;5053655;28;20056;-41
2024/02/22 04:38:32;;;;;;;5.50;4.80;;;22.20;43.50;;;;;;5061197;28;20034;-41
2024/02/22 04:40:59;;;;;;;5.93;4.88;;;22.20;43.60;;;;;;5061658;28;20037;-44
2024/02/22 04:43:25;;;;;;;5.30;4.63;;;22.20;43.70;;;;;;5061092;28;20037;-42
2024/02/22 04:45:51;;;;;;;5.70;5.00;;;22.30;43.80;;;;;;5062885;28;20029;-41
2024/02/22 04:48:17;;;;;;;6.30;4.80;;;22.30;43.70;;;;;;5054722;28;20091;-42
2024/02/22 04:50:43;;;;;;;6.07;5.18;;;22.20;43.60;;;;;;5053766;28;20033;-42
2024/02/22 04:53:10;;;;;;;7.03;4.90;;;22.20;43.50;;;;;;5062533;28;20043;-42
2024/02/22 04:55:36;;;;;;;5.07;4.55;;;22.20;43.50;;;;;;5056122;28;20022;-42
2024/02/22 04:58:05;;;;;;;8.50;4.80;;;22.20;43.50;;;;;;5060831;28;20045;-42
2024/02/22 05:00:31;;;;;;;5.28;4.70;;;22.20;43.60;;;;;;5051307;28;20029;-41
2024/02/22 05:02:59;;;;;;;6.45;5.05;;;22.20;43.70;;;;;;5053331;28;20129;-42
2024/02/22 05:05:25;;;;;;;7.10;5.72;;;22.20;43.60;;;;;;5047772;28;20029;-41
2024/02/22 05:07:51;;;;;;;6.75;5.60;;;22.20;44.20;;;;;;5073135;28;20044;-42
2024/02/22 05:10:17;;;;;;;6.35;5.50;;;22.20;43.70;;;;;;5077238;28;20645;-41
2024/02/22 05:12:44;;;;;;;5.97;5.18;;;22.20;43.60;;;;;;5075637;28;20029;-41
2024/02/22 05:15:10;;;;;;;5.80;5.15;;;22.20;43.60;;;;;;5077990;28;20028;-42
2024/02/22 05:17:40;;;;;;;5.43;4.77;;;22.20;43.70;;;;;;5080005;28;20473;-41
2024/02/22 05:20:07;;;;;;;6.05;5.30;;;22.20;43.70;;;;;;5079625;28;20265;-46
2024/02/22 05:22:34;;;;;;;8.50;6.95;;;22.20;43.60;;;;;;5078839;28;21035;-42
2024/02/22 05:25:00;;;;;;;6.97;5.90;;;22.20;43.60;;;;;;5078368;28;20035;-43
2024/02/22 05:27:26;;;;;;;7.57;6.25;;;22.20;43.80;;;;;;5079292;28;20048;-42
2024/02/22 05:29:52;;;;;;;6.43;5.47;;;22.10;43.70;;;;;;5075278;28;20025;-42
2024/02/22 05:32:18;;;;;;;6.60;5.65;;;22.10;43.70;;;;;;5080628;28;20031;-41
2024/02/22 05:34:44;;;;;;;5.55;5.03;;;22.20;43.80;;;;;;5073187;28;20024;-42
2024/02/22 05:37:11;;;;;;;6.18;5.57;;;22.20;43.70;;;;;;5079446;28;20041;-43
2024/02/22 05:39:38;;;;;;;6.60;5.20;;;22.20;43.50;;;;;;5077834;28;20174;-42
2024/02/22 05:42:04;;;;;;;7.30;5.10;;;22.10;43.40;;;;;;5074366;28;20033;-43
2024/02/22 05:44:31;;;;;;;6.70;5.47;;;22.10;43.40;;;;;;5062369;28;20025;-42
2024/02/22 05:46:58;;;;;;;6.13;5.53;;;22.10;43.40;;;;;;5078117;28;20119;-42
2024/02/22 05:49:24;;;;;;;6.05;5.22;;;22.10;43.40;;;;;;5069900;28;20043;-42
2024/02/22 05:51:50;;;;;;;6.03;5.43;;;22.10;43.50;;;;;;5075046;28;20055;-45
2024/02/22 05:54:17;;;;;;;6.28;5.55;;;22.10;43.40;;;;;;5079390;28;20043;-43
2024/02/22 05:56:43;;;;;;;6.35;5.50;;;22.10;43.30;;;;;;5077446;28;20040;-44
2024/02/22 05:59:09;;;;;;;6.75;5.45;;;22.10;43.30;;;;;;5070833;28;20484;-43
2024/02/22 06:01:35;;;;;;;5.57;4.97;;;22.10;43.20;;;;;;5070272;28;20051;-42
2024/02/22 06:04:03;;;;;;;5.80;4.82;;;22.10;43.30;;;;;;5081023;28;21646;-42
2024/02/22 06:06:29;;;;;;;6.22;5.63;;;22.10;43.30;;;;;;5069826;28;20044;-42
2024/02/22 06:08:55;;;;;;;6.05;5.40;;;22.10;43.40;;;;;;5079291;28;20099;-41
2024/02/22 06:11:21;;;;;;;5.95;5.45;;;22.10;43.30;;;;;;5078875;28;20117;-42
2024/02/22 06:13:48;;;;;;;6.15;5.55;;;22.10;43.20;;;;;;5079152;28;20477;-43
2024/02/22 06:16:14;;;;;;;5.85;5.25;;;22.10;43.20;;;;;;5073270;28;20603;-42
2024/02/22 06:18:40;;;;;;;5.65;5.15;;;22.00;43.10;;;;;;5075338;28;20029;-42
2024/02/22 06:21:07;;;;;;;5.97;5.38;;;22.00;43.20;;;;;;5076596;28;20039;-43
2024/02/22 06:23:36;;;;;;;5.88;5.30;;;22.10;43.30;;;;;;5059443;28;20035;-42
2024/02/22 06:26:03;;;;;;;6.38;5.78;;;22.10;43.30;;;;;;5077740;28;20060;-43
2024/02/22 06:28:29;;;;;;;;;;;22.10;43.30;;;;;;5073623;28;20100;-42
2024/02/22 06:30:56;;;;;;;8.48;5.97;;;22.10;43.20;;;;;;5078680;28;19994;-43
2024/02/22 06:33:22;;;;;;;6.35;5.72;;;22.10;43.10;;;;;;5075250;28;20116;-47
2024/02/22 06:35:49;;;;;;;6.47;5.43;;;22.00;43.10;;;;;;5067287;28;20032;-42
2024/02/22 06:38:16;;;;;;;6.82;5.43;;;22.00;43.10;;;;;;5069407;28;20048;-41
2024/02/22 06:40:49;;;;;;;6.60;5.90;;;22.10;43.30;;;;;;5079509;28;20037;-41
2024/02/22 06:43:19;;;;;;;6.82;6.03;;;22.10;43.30;;;;;;5068000;28;20033;-43
2024/02/22 06:45:45;;;;;;;6.25;5.65;;;22.10;43.20;;;;;;5068017;28;20048;-43
2024/02/22 06:48:11;;;;;;;6.75;6.00;;;22.00;43.10;;;;;;5071519;28;20054;-41
2024/02/22 06:50:37;;;;;;;6.32;5.70;;;22.10;43.10;;;;;;5072339;28;20029;-41
2024/02/22 06:53:03;;;;;;;5.50;5.00;;;22.00;43.10;;;;;;5066670;28;20033;-41
2024/02/22 06:55:31;;;;;;;7.13;6.43;;;22.00;43.20;;;;;;5071101;28;20090;-43
2024/02/22 06:57:57;;;;;;;7.07;6.38;;;22.10;43.30;;;;;;5067924;28;20100;-40
2024/02/22 07:00:24;;;;;;;6.32;5.72;;;22.00;43.10;;;;;;5066291;28;20040;-42
2024/02/22 07:02:50;;;;;;;6.30;5.68;;;22.00;43.10;;;;;;5066283;28;20100;-42
2024/02/22 07:05:16;;;;;;;5.15;4.45;;;22.00;43.00;;;;;;5069818;28;20069;-40
2024/02/22 07:07:42;;;;;;;6.85;5.53;;;22.00;43.10;;;;;;5068141;28;20056;-42
2024/02/22 07:10:13;;;;;;;6.30;5.70;;;22.00;43.10;;;;;;5066405;28;20028;-42
2024/02/22 07:12:39;;;;;;;6.20;5.60;;;22.00;43.20;;;;;;5065354;28;20784;-42
2024/02/22 07:15:06;;;;;;;6.07;5.45;;;22.00;43.10;;;;;;5057447;28;20027;-41
2024/02/22 07:17:32;;;;;;;7.13;5.70;;;22.00;43.00;;;;;;5072499;28;20091;-42
2024/02/22 07:19:58;;;;;;;6.57;5.82;;;22.00;43.00;;;;;;5063816;28;20049;-42
2024/02/22 07:22:24;;;;;;;6.05;5.45;;;22.00;43.00;;;;;;5048790;28;20036;-42
2024/02/22 07:24:50;;;;;;;6.30;5.70;;;22.00;43.10;;;;;;5071905;28;20486;-42
2024/02/22 07:27:17;;;;;;;6.03;5.43;;;22.00;43.10;;;;;;5071676;28;20032;-41
2024/02/22 07:29:43;;;;;;;6.72;5.53;;;22.00;43.20;;;;;;5070474;28;20043;-41
2024/02/22 07:32:10;;;;;;;6.72;5.88;;;22.00;43.10;;;;;;5052634;28;20037;-42
2024/02/22 07:34:36;;;;;;;6.50;5.82;;;22.00;43.00;;;;;;5073512;28;20029;-43
2024/02/22 07:37:02;;;;;;;6.10;5.50;;;22.00;42.90;;;;;;5073416;28;20044;-41
2024/02/22 07:39:29;;;;;;;6.35;5.75;;;22.00;43.00;;;;;;5070865;28;20033;-40
2024/02/22 07:41:55;;;;;;;6.35;5.72;;;22.00;43.10;;;;;;5065472;28;20036;-41
2024/02/22 07:44:21;;;;;;;6.25;5.50;;;22.00;43.10;;;;;;5070607;28;20032;-42
2024/02/22 07:46:47;;;;;;;5.80;5.30;;;22.00;43.10;;;;;;5065756;28;20589;-43
2024/02/22 07:49:13;;;;;;;6.65;5.90;;;22.00;43.00;;;;;;5068072;28;20119;-42
2024/02/22 07:51:39;;;;;;;6.68;5.97;;;22.00;43.00;;;;;;5072985;28;20032;-42
2024/02/22 07:54:06;;;;;;;6.47;5.72;;;21.90;42.90;;;;;;5068881;28;20033;-42
2024/02/22 07:56:33;;;;;;;6.65;5.60;;;22.00;43.00;;;;;;5071064;28;20032;-38
2024/02/22 07:58:59;;;;;;;6.30;5.70;;;22.00;43.70;;;;;;5068610;28;20089;-42
2024/02/22 08:01:25;;;;;;;5.93;5.43;;;22.00;43.00;;;;;;5064662;28;20025;-42
2024/02/22 08:03:53;;;;;;;6.10;5.50;;;22.00;43.00;;;;;;5067887;28;20127;-43
2024/02/22 08:06:19;;;;;;;6.68;6.07;;;22.00;42.90;;;;;;5071323;28;20528;-41
2024/02/22 08:08:46;;;;;;;5.80;5.20;;;21.90;42.80;;;;;;5070242;28;20036;-42
2024/02/22 08:11:12;;;;;;;6.25;5.63;;;21.90;42.90;;;;;;5072503;28;20036;-42
2024/02/22 08:13:38;;;;;;;6.18;5.57;;;22.00;43.00;;;;;;5070060;28;20021;-42
2024/02/22 08:16:08;;;;;;;6.35;5.70;;;22.00;43.10;;;;;;5070873;28;20028;-42
2024/02/22 08:18:35;;;;;;;5.80;5.20;;;22.00;43.00;;;;;;5050595;28;20079;-41
2024/02/22 08:21:02;;;;;;;6.40;5.68;;;22.00;42.90;;;;;;5065932;28;20032;-42
2024/02/22 08:23:28;;;;;;;6.53;5.82;;;21.90;42.80;;;;;;5072893;28;20052;-42
2024/02/22 08:25:55;;;;;;;6.60;6.00;;;21.90;42.80;;;;;;5068696;28;20394;-42
2024/02/22 08:28:22;;;;;;;6.63;5.25;;;21.90;42.90;;;;;;5066362;28;20032;-42
2024/02/22 08:30:48;;;;;;;5.95;5.32;;;21.90;43.00;;;;;;5067891;28;20029;-42
2024/02/22 08:33:14;;;;;;;6.13;5.53;;;22.00;43.00;;;;;;5069880;28;20040;-42
2024/02/22 08:35:41;;;;;;;6.30;5.70;;;21.90;42.90;;;;;;5072520;28;20141;-42
2024/02/22 08:38:08;;;;;;;6.70;6.00;;;21.90;42.80;;;;;;5068358;28;20135;-42
2024/02/22 08:40:34;;;;;;;6.18;5.55;;;21.90;42.80;;;;;;5067266;28;20087;-41
2024/02/22 08:43:01;;;;;;;6.00;5.30;;;21.90;42.90;;;;;;5063391;28;20039;-43
2024/02/22 08:45:27;;;;;;;6.63;5.60;;;21.90;43.00;;;;;;5074732;28;20119;-43
2024/02/22 08:47:53;;;;;;;5.90;5.30;;;22.00;43.00;;;;;;5078836;28;20020;-41
2024/02/22 08:50:20;;;;;;;5.72;5.22;;;21.90;42.90;;;;;;5081699;28;20063;-41
2024/02/22 08:52:47;;;;;;;;;;;21.90;42.90;;;;;;5082457;28;20021;-43
2024/02/22 08:55:13;;;;;;;5.90;5.30;;;21.90;42.80;;;;;;5082567;28;19923;-40
2024/02/22 08:57:39;;;;;;;6.17;5.40;;;21.90;42.90;;;;;;5081325;28;20067;-42
2024/02/22 09:00:08;;;;;;;6.22;5.63;;;21.90;43.00;;;;;;5082120;28;20035;-41
2024/02/22 09:02:34;;;;;;;6.32;5.72;;;21.90;43.00;;;;;;5063789;28;20029;-41
2024/02/22 09:05:00;;;;;;;6.43;5.70;;;22.00;42.90;;;;;;5079823;28;20032;-42
2024/02/22 09:07:27;;;;;;;6.45;5.60;;;21.90;42.80;;;;;;5061835;28;20044;-41
2024/02/22 09:09:53;;;;;;;7.13;5.93;;;21.90;42.80;;;;;;5049503;28;20036;-42
2024/02/22 09:12:20;;;;;;;6.18;5.57;;;21.90;42.90;;;;;;5055177;28;20035;-41
2024/02/22 09:14:46;;;;;;;6.15;5.55;;;21.90;42.90;;;;;;5057038;28;20029;-42
2024/02/22 09:17:12;;;;;;;5.95;5.35;;;21.90;43.00;;;;;;5057605;28;20049;-42
2024/02/22 09:19:39;;;;;;;6.40;5.80;;;21.90;42.90;;;;;;5059716;28;20040;-42
2024/02/22 09:22:05;;;;;;;5.82;5.22;;;21.90;42.80;;;;;;5060377;28;20036;-42
2024/02/22 09:24:31;;;;;;;6.30;5.70;;;21.90;42.80;;;;;;5059301;28;20021;-42
2024/02/22 09:26:57;;;;;;;5.95;5.35;;;21.90;42.80;;;;;;5060072;28;20047;-42
2024/02/22 09:29:26;;;;;;;5.78;5.20;;;21.90;42.90;;;;;;5060787;28;20032;-42
2024/02/22 09:31:56;;;;;;;6.28;5.68;;;21.90;43.00;;;;;;5055166;28;20029;-42
2024/02/22 09:34:25;;;;;;;6.55;5.65;;;22.00;42.90;;;;;;5058514;28;20029;-42
2024/02/22 09:36:51;;;;;;;6.80;6.18;;;21.90;42.80;;;;;;5053819;28;20025;-42
2024/02/22 09:39:19;;;;;;;6.18;5.57;;;21.90;42.80;;;;;;5058148;28;20059;-43
2024/02/22 09:41:45;;;;;;;6.22;5.63;;;21.90;42.80;;;;;;5058792;28;20052;-42
2024/02/22 09:44:11;;;;;;;6.30;5.70;;;21.90;42.80;;;;;;5034861;28;20024;-42
2024/02/22 09:46:38;;;;;;;6.43;5.75;;;21.90;42.90;;;;;;5053816;28;20048;-40
2024/02/22 09:49:04;;;;;;;6.15;5.55;;;21.90;42.90;;;;;;5034649;28;20036;-43
2024/02/22 09:51:35;;;;;;;10.02;6.25;;;21.90;42.80;;;;;;5053647;28;20033;-41
2024/02/22 09:54:01;;;;;;;6.90;6.20;;;21.90;42.80;;;;;;5060006;28;20033;-42
2024/02/22 09:56:27;;;;;;;6.68;5.97;;;21.90;42.80;;;;;;5057650;28;20802;-42
2024/02/22 09:58:56;;;;;;;5.97;5.38;;;21.90;42.90;;;;;;5041044;28;20087;-42
2024/02/22 10:01:22;;;;;;;6.93;6.00;;;21.90;43.00;;;;;;5058712;28;20673;-44
2024/02/22 10:03:48;;;;;;;6.95;6.25;;;21.90;43.00;;;;;;5057416;28;20092;-42
2024/02/22 10:06:18;;;;;;;6.38;5.72;;;21.90;42.90;;;;;;5069791;28;20513;-42
2024/02/22 10:08:44;;;;;;;7.00;5.85;;;21.90;42.80;;;;;;5061555;28;20108;-42
2024/02/22 10:11:11;;;;;;;6.40;5.80;;;21.90;42.80;;;;;;5081576;28;20033;-45
2024/02/22 10:13:37;;;;;;;6.45;5.85;;;21.90;42.90;;;;;;5077627;28;20123;-42
2024/02/22 10:16:15;;;;;;;6.32;5.43;;;21.90;43.00;;;;;;5077730;28;20058;-42
2024/02/22 10:18:42;;;;;;;6.38;5.60;;;21.90;43.00;;;;;;5084638;28;20029;-42
2024/02/22 10:21:15;;;;;;;6.47;5.32;;;21.90;42.90;;;;;;5050400;28;20048;-42
2024/02/22 10:24:00;;;;;;;6.90;5.70;;;21.90;42.80;;;;;;5076272;28;20492;-42
2024/02/22 10:26:26;;;;;;;6.53;5.90;;;21.90;42.70;;;;;;5074108;28;20023;-42
2024/02/22 10:28:54;;;;;;;7.68;5.88;;;21.90;42.80;;;;;;5079069;28;20036;-42
2024/02/22 10:31:20;;;;;;;6.40;5.72;;;21.90;42.90;;;;;;5061997;28;20493;-42
2024/02/22 10:33:47;;;;;;;6.15;5.55;;;21.90;42.90;;;;;;5084344;28;20032;-42
2024/02/22 10:36:14;;;;;;;6.18;5.57;;;21.90;42.80;;;;;;5065461;28;20056;-42
2024/02/22 10:38:40;;;;;;;6.72;6.00;;;21.90;42.80;;;;;;5065689;28;20650;-42
2024/02/22 10:41:08;;;;;;;7.00;6.30;;;21.90;42.70;;;;;;5058032;28;20051;-42
2024/02/22 10:43:35;;;;;;;7.28;5.80;;;21.90;42.80;;;;;;5083793;28;20053;-42
2024/02/22 10:46:02;;;;;;;;;;;21.90;42.80;;;;;;5055509;28;20064;-44
2024/02/22 10:48:34;;;;;;;6.40;5.70;;;21.90;42.90;;;;;;5081726;28;19919;-42
2024/02/22 10:51:02;;;;;;;6.88;6.18;;;21.90;42.80;;;;;;5083768;28;20055;-44
2024/02/22 10:53:28;;;;;;;6.50;5.90;;;21.90;42.70;;;;;;5083842;28;20084;-42
2024/02/22 10:55:55;;;;;;;7.03;6.35;;;21.90;42.60;;;;;;5065983;28;20470;-43
2024/02/22 10:58:22;;;;;;;6.57;5.95;;;21.90;42.70;;;;;;5080781;28;20041;-41
2024/02/22 11:00:48;;;;;;;6.65;5.85;;;21.90;42.80;;;;;;5079080;28;20064;-43
2024/02/22 11:03:16;;;;;;;6.03;5.43;;;21.90;42.90;;;;;;5084573;28;20115;-41
2024/02/22 11:05:46;;;;;;;6.63;6.03;;;21.90;42.90;;;;;;5079163;28;20032;-42
2024/02/22 11:08:21;;;;;;;6.78;6.07;;;21.90;42.70;;;;;;5043544;28;20059;-41
2024/02/22 11:11:08;;;;;;;7.30;6.15;;;21.90;42.60;;;;;;5061579;28;20032;-42
2024/02/22 11:13:37;;;;;;;6.45;5.85;;;21.90;42.60;;;;;;5060651;28;20037;-42
2024/02/22 11:16:33;;;;;;;6.90;6.30;;;21.90;42.80;;;;;;5059521;28;20056;-41
2024/02/22 11:19:12;;;;;;;7.28;6.57;;;21.90;42.80;;;;;;5040647;28;20076;-42
2024/02/22 11:21:39;;;;;;;7.47;6.53;;;21.90;42.80;;;;;;5062932;28;20025;-42
2024/02/22 11:24:14;;;;;;;7.18;6.47;;;21.90;42.60;;;;;;5058155;28;20037;-43
2024/02/22 11:26:41;;;;;;;6.82;6.13;;;21.90;42.60;;;;;;5044346;28;20072;-41
2024/02/22 11:29:07;;;;;;;6.53;5.87;;;21.90;42.60;;;;;;5062981;28;20040;-42
2024/02/22 11:31:35;;;;;;;7.10;6.40;;;21.90;42.70;;;;;;5059005;28;20354;-42
2024/02/22 11:34:02;;;;;;;6.78;6.00;;;21.90;42.80;;;;;;5064069;28;20037;-42
2024/02/22 11:36:29;;;;;;;6.70;5.70;;;21.90;42.70;;;;;;5063095;28;20041;-42
2024/02/22 11:39:01;;;;;;;;;;;21.90;42.70;;;;;;5057595;28;20037;-43
2024/02/22 11:41:30;;;;;;;7.32;6.55;;;21.90;42.50;;;;;;5059839;28;19917;-43
2024/02/22 11:44:06;;;;;;;7.68;6.88;;;21.90;42.60;;;;;;5055918;28;20032;-43
2024/02/22 11:46:40;;;;;;;7.43;6.50;;;21.90;42.60;;;;;;5056894;28;20433;-42
2024/02/22 11:49:07;;;;;;;7.03;6.32;;;21.90;42.70;;;;;;5060336;28;20021;-42
2024/02/22 11:51:33;;;;;;;;;;;21.90;42.70;;;;;;5061689;28;20040;-41
2024/02/22 11:53:59;;;;;;;6.90;6.20;;;21.90;42.60;;;;;;5058066;28;19935;-41
2024/02/22 11:56:26;;;;;;;7.18;6.47;;;21.90;42.50;;;;;;5056126;28;20033;-41
2024/02/22 11:58:55;;;;;;;6.45;5.85;;;21.90;42.50;;;;;;5056739;28;20340;-43
2024/02/22 12:01:21;;;;;;;7.40;6.60;;;21.90;42.60;;;;;;5060183;28;20033;-39
2024/02/22 12:03:47;;;;;;;7.55;6.75;;;21.90;42.70;;;;;;5062931;28;20796;-43
2024/02/22 12:06:14;;;;;;;7.10;6.40;;;21.90;42.60;;;;;;5049049;28;20049;-42
2024/02/22 12:08:44;;;;;;;7.20;6.50;;;21.90;43.20;;;;;;5059613;28;20542;-41
2024/02/22 12:11:13;;;;;;;7.28;6.53;;;21.90;42.50;;;;;;5058852;28;20089;-42
2024/02/22 12:13:39;;;;;;;6.63;5.97;;;21.90;42.50;;;;;;5080333;28;20033;-42
2024/02/22 12:16:11;;;;;;;7.37;6.63;;;21.90;42.60;;;;;;5059797;28;20393;-42
2024/02/22 12:18:39;;;;;;;7.07;6.13;;;21.90;42.70;;;;;;5079528;28;20044;-41
2024/02/22 12:21:11;;;;;;;7.18;6.47;;;21.90;42.70;;;;;;5078599;28;20035;-41
2024/02/22 12:23:37;;;;;;;8.82;6.78;;;21.90;42.60;;;;;;5076936;28;20085;-42
2024/02/22 12:26:09;;;;;;;7.43;6.55;;;21.90;42.60;;;;;;5082182;28;20028;-42
2024/02/22 12:28:35;;;;;;;7.07;6.30;;;21.90;42.60;;;;;;5078659;28;20446;-41
2024/02/22 12:31:05;;;;;;;9.88;6.95;;;21.90;42.80;;;;;;5082272;28;20084;-41
2024/02/22 12:33:32;;;;;;;9.85;6.97;;;21.90;43.40;;;;;;5063729;28;20052;-42
2024/02/22 12:35:58;;;;;;;14.40;7.65;;;22.00;44.20;;;;;;5082845;28;20054;-42
2024/02/22 12:38:24;;;;;;;12.50;7.90;;;22.00;45.00;;;;;;5081735;28;20100;-41
2024/02/22 12:40:50;;;;;;;14.65;7.50;;;22.00;45.30;;;;;;5081958;28;20080;-45
2024/02/22 12:43:20;;;;;;;15.73;8.40;;;22.00;45.60;;;;;;5077998;28;20028;-43
2024/02/22 12:45:48;;;;;;;13.70;7.47;;;22.00;46.00;;;;;;5077890;28;20074;-42
2024/02/22 12:48:15;;;;;;;11.57;7.35;;;22.00;46.20;;;;;;5081783;28;20098;-44